createdAt,value
2018-12-04T00:00:41.468Z,9.45
2018-12-04T00:01:51.170Z,9.45
2018-12-04T00:03:01.108Z,9.39
2018-12-04T00:04:10.833Z,9.42
2018-12-04T00:05:20.782Z,9.4
2018-12-04T00:06:30.728Z,9.44
2018-12-04T00:07:40.440Z,9.44
2018-12-04T00:08:50.389Z,9.58
2018-12-04T00:10:00.328Z,9.58
2018-12-04T00:11:10.281Z,9.58
2018-12-04T00:12:19.975Z,9.58
2018-12-04T00:13:29.931Z,9.63
2018-12-04T00:14:39.667Z,9.58
2018-12-04T00:15:49.368Z,9.58
2018-12-04T00:16:58.806Z,9.56
2018-12-04T00:18:08.522Z,9.63
2018-12-04T00:19:18.460Z,9.54
2018-12-04T00:20:28.148Z,9.63
2018-12-04T00:21:37.842Z,9.59
2018-12-04T00:22:47.784Z,9.58
2018-12-04T00:23:57.489Z,9.62
2018-12-04T00:25:07.429Z,9.58
2018-12-04T00:26:17.363Z,9.59
2018-12-04T00:27:27.308Z,9.59
2018-12-04T00:28:37.243Z,9.64
2018-12-04T00:29:46.936Z,9.54
2018-12-04T00:30:56.859Z,9.58
2018-12-04T00:32:06.561Z,9.54
2018-12-04T00:33:16.506Z,9.58
2018-12-04T00:34:26.219Z,9.59
2018-12-04T00:35:36.145Z,9.54
2018-12-04T00:36:45.571Z,9.55
2018-12-04T00:37:55.526Z,9.56
2018-12-04T00:39:06.636Z,9.54
2018-12-04T00:40:16.591Z,9.58
2018-12-04T00:41:26.272Z,9.62
2018-12-04T00:42:35.979Z,9.59
2018-12-04T00:43:45.918Z,9.62
2018-12-04T00:44:55.610Z,9.54
2018-12-04T00:46:05.291Z,9.62
2018-12-04T00:47:15.223Z,9.64
2018-12-04T00:48:25.153Z,9.63
2018-12-04T00:49:35.098Z,9.66
2018-12-04T00:50:44.780Z,9.69
2018-12-04T00:51:54.203Z,9.76
2018-12-04T00:53:03.908Z,9.72
2018-12-04T00:54:13.658Z,9.73
2018-12-04T00:55:23.341Z,9.84
2018-12-04T00:56:33.032Z,9.8
2018-12-04T00:57:42.978Z,9.84
2018-12-04T00:58:52.917Z,9.9
2018-12-04T01:00:02.857Z,9.84
2018-12-04T01:01:12.544Z,9.94
2018-12-04T01:02:22.481Z,9.92
2018-12-04T01:03:32.416Z,9.95
2018-12-04T01:04:42.100Z,9.91
2018-12-04T01:05:52.040Z,10
2018-12-04T01:07:01.724Z,10
2018-12-04T01:08:11.684Z,9.99
2018-12-04T01:09:21.639Z,9.99
2018-12-04T01:10:31.326Z,10
2018-12-04T01:11:41.264Z,9.95
2018-12-04T01:12:51.263Z,10.02
2018-12-04T01:14:00.951Z,10
2018-12-04T01:15:10.891Z,10.07
2018-12-04T01:16:20.332Z,10.13
2018-12-04T01:17:30.274Z,10.09
2018-12-04T01:18:39.992Z,10.09
2018-12-04T01:19:49.938Z,10.09
2018-12-04T01:20:59.623Z,10.1
2018-12-04T01:22:09.585Z,10.17
2018-12-04T01:23:19.536Z,10.06
2018-12-04T01:24:29.481Z,10.15
2018-12-04T01:25:39.188Z,10.17
2018-12-04T01:26:49.114Z,10.15
2018-12-04T01:27:58.795Z,10.23
2018-12-04T01:29:08.726Z,10.3
2018-12-04T01:30:18.676Z,10.24
2018-12-04T01:31:28.624Z,10.23
2018-12-04T01:32:38.312Z,10.18
2018-12-04T01:33:48.248Z,10.28
2018-12-04T01:34:58.198Z,10.25
2018-12-04T01:36:08.154Z,10.25
2018-12-04T01:37:17.844Z,10.23
2018-12-04T01:38:27.529Z,10.28
2018-12-04T01:39:37.470Z,10.24
2018-12-04T01:40:47.150Z,10.2
2018-12-04T01:41:57.084Z,10.23
2018-12-04T01:43:06.763Z,10.21
2018-12-04T01:44:16.461Z,10.27
2018-12-04T01:45:26.399Z,10.2
2018-12-04T01:46:36.336Z,10.2
2018-12-04T01:47:45.864Z,10.15
2018-12-04T01:48:55.804Z,10.23
2018-12-04T01:50:05.744Z,10.23
2018-12-04T01:51:15.686Z,10.23
2018-12-04T01:52:25.631Z,10.24
2018-12-04T01:53:35.305Z,10.25
2018-12-04T01:54:45.244Z,10.36
2018-12-04T01:55:55.246Z,10.31
2018-12-04T01:57:05.176Z,10.25
2018-12-04T01:58:15.113Z,10.42
2018-12-04T01:59:25.052Z,10.33
2018-12-04T02:00:34.751Z,10.36
2018-12-04T02:01:44.486Z,10.34
2018-12-04T02:02:54.424Z,10.34
2018-12-04T02:04:04.354Z,10.39
2018-12-04T02:05:14.281Z,10.36
2018-12-04T02:06:23.723Z,10.33
2018-12-04T02:07:33.656Z,10.33
2018-12-04T02:08:43.337Z,10.45
2018-12-04T02:09:53.275Z,10.39
2018-12-04T02:11:03.204Z,10.34
2018-12-04T02:12:13.144Z,10.38
2018-12-04T02:13:23.065Z,10.42
2018-12-04T02:14:33.010Z,10.42
2018-12-04T02:15:42.466Z,10.42
2018-12-04T02:16:52.161Z,10.46
2018-12-04T02:18:02.097Z,10.41
2018-12-04T02:19:11.542Z,10.38
2018-12-04T02:20:21.476Z,10.38
2018-12-04T02:21:31.433Z,10.39
2018-12-04T02:22:41.365Z,10.42
2018-12-04T02:23:51.318Z,10.49
2018-12-04T02:25:01.002Z,10.42
2018-12-04T02:26:10.681Z,10.45
2018-12-04T02:27:20.645Z,10.46
2018-12-04T02:28:30.582Z,10.46
2018-12-04T02:29:40.516Z,10.45
2018-12-04T02:30:50.471Z,10.46
2018-12-04T02:32:00.434Z,10.42
2018-12-04T02:33:10.142Z,10.43
2018-12-04T02:34:19.835Z,10.46
2018-12-04T02:35:29.790Z,10.45
2018-12-04T02:36:39.734Z,10.45
2018-12-04T02:37:49.671Z,10.57
2018-12-04T02:38:59.620Z,10.51
2018-12-04T02:40:09.563Z,10.49
2018-12-04T02:41:19.284Z,10.49
2018-12-04T02:42:29.228Z,10.51
2018-12-04T02:43:38.927Z,10.46
2018-12-04T02:44:48.369Z,10.57
2018-12-04T02:45:58.309Z,10.46
2018-12-04T02:47:08.270Z,10.57
2018-12-04T02:48:17.950Z,10.45
2018-12-04T02:49:27.634Z,10.49
2018-12-04T02:50:37.578Z,10.57
2018-12-04T02:51:47.022Z,10.57
2018-12-04T02:52:56.963Z,10.59
2018-12-04T02:54:06.424Z,10.58
2018-12-04T02:55:16.354Z,10.53
2018-12-04T02:56:26.287Z,10.62
2018-12-04T02:57:35.983Z,10.49
2018-12-04T02:58:45.918Z,10.55
2018-12-04T02:59:55.843Z,10.58
2018-12-04T03:01:05.531Z,10.53
2018-12-04T03:02:15.221Z,10.55
2018-12-04T03:03:25.196Z,10.55
2018-12-04T03:04:35.147Z,10.55
2018-12-04T03:05:44.840Z,10.57
2018-12-04T03:06:54.536Z,10.55
2018-12-04T03:08:04.470Z,10.59
2018-12-04T03:09:14.165Z,10.61
2018-12-04T03:10:24.104Z,10.67
2018-12-04T03:11:34.070Z,10.62
2018-12-04T03:12:43.762Z,10.68
2018-12-04T03:13:53.212Z,10.68
2018-12-04T03:15:02.915Z,10.68
2018-12-04T03:16:12.622Z,10.68
2018-12-04T03:17:22.571Z,10.8
2018-12-04T03:18:32.261Z,10.79
2018-12-04T03:19:41.956Z,10.83
2018-12-04T03:20:51.904Z,10.76
2018-12-04T03:22:01.423Z,10.8
2018-12-04T03:23:11.372Z,10.8
2018-12-04T03:24:21.072Z,10.8
2018-12-04T03:25:31.048Z,10.68
2018-12-04T03:26:40.755Z,10.62
2018-12-04T03:27:50.707Z,10.68
2018-12-04T03:29:00.398Z,10.51
2018-12-04T03:30:10.098Z,10.43
2018-12-04T03:31:20.078Z,10.39
2018-12-04T03:32:30.132Z,10.39
2018-12-04T03:33:40.139Z,10.28
2018-12-04T03:34:49.854Z,10.27
2018-12-04T03:35:59.541Z,10.27
2018-12-04T03:37:09.249Z,10.09
2018-12-04T03:38:19.238Z,10.02
2018-12-04T03:39:28.940Z,9.99
2018-12-04T03:40:38.624Z,9.97
2018-12-04T03:41:48.322Z,9.84
2018-12-04T03:42:58.282Z,9.72
2018-12-04T03:44:07.984Z,9.59
2018-12-04T03:45:17.959Z,9.44
2018-12-04T03:46:27.896Z,9.4
2018-12-04T03:47:37.849Z,9.44
2018-12-04T03:48:47.821Z,9.36
2018-12-04T03:49:57.792Z,9.4
2018-12-04T03:51:07.731Z,9.44
2018-12-04T03:52:17.682Z,9.44
2018-12-04T03:53:27.648Z,9.37
2018-12-04T03:54:37.599Z,9.4
2018-12-04T03:55:47.555Z,9.36
2018-12-04T03:56:57.264Z,9.34
2018-12-04T03:58:07.221Z,9.33
2018-12-04T03:59:17.187Z,9.36
2018-12-04T04:00:26.880Z,9.34
2018-12-04T04:01:36.831Z,9.33
2018-12-04T04:02:46.537Z,9.29
2018-12-04T04:03:56.247Z,9.3
2018-12-04T04:05:05.687Z,9.22
2018-12-04T04:06:15.632Z,9.16
2018-12-04T04:07:25.592Z,9.09
2018-12-04T04:08:35.290Z,9.05
2018-12-04T04:09:44.982Z,9.05
2018-12-04T04:10:54.692Z,8.93
2018-12-04T04:12:04.636Z,8.95
2018-12-04T04:13:14.597Z,9
2018-12-04T04:14:24.279Z,9.03
2018-12-04T04:15:34.232Z,8.93
2018-12-04T04:16:44.174Z,8.95
2018-12-04T04:17:54.159Z,8.96
2018-12-04T04:19:03.600Z,8.93
2018-12-04T04:20:13.282Z,8.87
2018-12-04T04:21:23.230Z,8.93
2018-12-04T04:22:32.930Z,8.87
2018-12-04T04:23:42.892Z,8.92
2018-12-04T04:24:52.851Z,8.95
2018-12-04T04:26:02.554Z,8.92
2018-12-04T04:27:12.256Z,8.84
2018-12-04T04:28:21.966Z,8.86
2018-12-04T04:29:31.909Z,8.81
2018-12-04T04:30:41.851Z,8.78
2018-12-04T04:31:51.805Z,8.78
2018-12-04T04:33:01.515Z,8.74
2018-12-04T04:34:11.203Z,8.78
2018-12-04T04:35:21.214Z,8.71
2018-12-04T04:36:31.157Z,8.72
2018-12-04T04:37:41.106Z,8.72
2018-12-04T04:38:50.558Z,8.69
2018-12-04T04:40:00.265Z,8.63
2018-12-04T04:41:10.217Z,8.69
2018-12-04T04:42:19.928Z,8.68
2018-12-04T04:43:29.658Z,8.66
2018-12-04T04:44:39.611Z,8.71
2018-12-04T04:45:49.314Z,8.68
2018-12-04T04:46:59.290Z,8.66
2018-12-04T04:48:09.257Z,8.71
2018-12-04T04:49:19.250Z,8.6
2018-12-04T04:50:28.717Z,8.68
2018-12-04T04:51:38.420Z,8.68
2018-12-04T04:52:48.399Z,8.63
2018-12-04T04:53:58.169Z,8.64
2018-12-04T04:55:08.128Z,8.66
2018-12-04T04:56:17.831Z,8.63
2018-12-04T04:57:27.572Z,8.57
2018-12-04T04:58:37.578Z,8.6
2018-12-04T04:59:47.537Z,8.64
2018-12-04T05:00:57.479Z,8.57
2018-12-04T05:02:07.441Z,8.59
2018-12-04T05:03:16.886Z,8.5
2018-12-04T05:04:26.580Z,8.53
2018-12-04T05:05:36.543Z,8.59
2018-12-04T05:06:46.497Z,8.5
2018-12-04T05:07:56.196Z,8.49
2018-12-04T05:09:06.149Z,8.44
2018-12-04T05:10:16.107Z,8.42
2018-12-04T05:11:26.056Z,8.46
2018-12-04T05:12:35.761Z,8.46
2018-12-04T05:13:45.484Z,8.42
2018-12-04T05:14:55.435Z,8.46
2018-12-04T05:16:05.389Z,8.39
2018-12-04T05:17:15.380Z,8.38
2018-12-04T05:18:25.383Z,8.35
2018-12-04T05:19:35.080Z,8.5
2018-12-04T05:20:45.023Z,8.49
2018-12-04T05:21:54.718Z,8.39
2018-12-04T05:23:04.675Z,8.36
2018-12-04T05:24:14.640Z,8.46
2018-12-04T05:25:24.349Z,8.36
2018-12-04T05:26:33.797Z,8.36
2018-12-04T05:27:43.754Z,8.36
2018-12-04T05:28:53.449Z,8.38
2018-12-04T05:30:03.195Z,8.36
2018-12-04T05:31:12.630Z,8.38
2018-12-04T05:32:22.336Z,8.42
2018-12-04T05:33:32.291Z,8.38
2018-12-04T05:34:42.245Z,8.35
2018-12-04T05:35:52.193Z,8.32
2018-12-04T05:37:01.641Z,8.31
2018-12-04T05:38:11.603Z,8.34
2018-12-04T05:39:21.546Z,8.35
2018-12-04T05:40:31.486Z,8.32
2018-12-04T05:41:41.202Z,8.26
2018-12-04T05:42:50.886Z,8.17
2018-12-04T05:44:00.842Z,8.26
2018-12-04T05:45:10.787Z,8.21
2018-12-04T05:46:20.239Z,8.21
2018-12-04T05:47:30.193Z,8.16
2018-12-04T05:48:39.638Z,8.21
2018-12-04T05:49:49.586Z,8.18
2018-12-04T05:50:59.274Z,8.26
2018-12-04T05:52:09.230Z,8.27
2018-12-04T05:53:18.701Z,8.24
2018-12-04T05:54:28.663Z,8.2
2018-12-04T05:55:38.102Z,8.23
2018-12-04T05:56:47.799Z,8.21
2018-12-04T05:57:57.515Z,8.23
2018-12-04T05:59:06.962Z,8.21
2018-12-04T06:00:16.905Z,8.23
2018-12-04T06:01:26.856Z,8.23
2018-12-04T06:02:36.556Z,8.21
2018-12-04T06:03:46.259Z,8.24
2018-12-04T06:04:56.233Z,8.26
2018-12-04T06:06:06.186Z,8.21
2018-12-04T06:07:16.131Z,8.24
2018-12-04T06:08:26.095Z,8.27
2018-12-04T06:09:35.794Z,8.23
2018-12-04T06:10:45.248Z,8.24
2018-12-04T06:11:56.388Z,8.2
2018-12-04T06:13:06.082Z,8.23
2018-12-04T06:14:16.013Z,8.2
2018-12-04T06:15:25.710Z,8.23
2018-12-04T06:16:35.418Z,8.21
2018-12-04T06:17:45.118Z,8.23
2018-12-04T06:18:54.320Z,8.17
2018-12-04T06:20:04.280Z,8.21
2018-12-04T06:21:14.224Z,8.18
2018-12-04T06:22:24.177Z,8.17
2018-12-04T06:23:34.147Z,8.17
2018-12-04T06:24:44.092Z,8.2
2018-12-04T06:25:54.062Z,8.23
2018-12-04T06:27:04.014Z,8.23
2018-12-04T06:28:13.984Z,8.18
2018-12-04T06:29:23.447Z,8.21
2018-12-04T06:30:33.398Z,8.2
2018-12-04T06:31:43.337Z,8.18
2018-12-04T06:32:52.782Z,8.2
2018-12-04T06:34:02.716Z,8.23
2018-12-04T06:35:12.427Z,8.2
2018-12-04T06:36:21.877Z,8.23
2018-12-04T06:37:31.584Z,8.26
2018-12-04T06:38:41.558Z,8.14
2018-12-04T06:39:51.509Z,8.16
2018-12-04T06:41:01.227Z,8.16
2018-12-04T06:42:11.172Z,8.13
2018-12-04T06:43:20.873Z,8.14
2018-12-04T06:44:30.311Z,8.11
2018-12-04T06:45:40.595Z,8.11
2018-12-04T06:46:50.321Z,8.11
2018-12-04T06:48:00.045Z,8.05
2018-12-04T06:49:09.738Z,8.02
2018-12-04T06:50:19.467Z,8.02
2018-12-04T06:51:29.178Z,8.03
2018-12-04T06:52:39.126Z,8.01
2018-12-04T06:53:48.589Z,7.93
2018-12-04T06:54:58.543Z,7.93
2018-12-04T06:56:08.507Z,7.88
2018-12-04T06:57:18.910Z,7.83
2018-12-04T06:58:28.853Z,7.84
2018-12-04T06:59:38.315Z,7.85
2018-12-04T07:00:48.009Z,7.88
2018-12-04T07:01:57.701Z,7.93
2018-12-04T07:03:07.393Z,7.84
2018-12-04T07:04:17.356Z,7.84
2018-12-04T07:05:26.801Z,7.93
2018-12-04T07:06:37.310Z,7.93
2018-12-04T07:07:47.269Z,7.87
2018-12-04T07:08:56.976Z,7.83
2018-12-04T07:10:06.937Z,7.96
2018-12-04T07:11:16.874Z,7.91
2018-12-04T07:12:26.818Z,7.91
2018-12-04T07:13:36.504Z,7.93
2018-12-04T07:14:45.953Z,7.9
2018-12-04T07:15:55.907Z,7.91
2018-12-04T07:17:05.615Z,7.84
2018-12-04T07:18:15.569Z,7.87
2018-12-04T07:19:25.271Z,7.81
2018-12-04T07:20:34.969Z,7.84
2018-12-04T07:21:44.171Z,7.83
2018-12-04T07:22:54.535Z,7.77
2018-12-04T07:24:04.527Z,7.81
2018-12-04T07:25:14.486Z,7.87
2018-12-04T07:26:23.431Z,7.84
2018-12-04T07:27:33.394Z,7.8
2018-12-04T07:28:42.338Z,7.75
2018-12-04T07:29:52.055Z,7.77
2018-12-04T07:31:01.756Z,7.7
2018-12-04T07:32:11.463Z,7.75
2018-12-04T07:33:21.172Z,7.69
2018-12-04T07:34:30.965Z,7.74
2018-12-04T07:35:40.423Z,7.75
2018-12-04T07:36:50.153Z,7.66
2018-12-04T07:37:59.855Z,7.67
2018-12-04T07:39:09.807Z,7.59
2018-12-04T07:40:19.753Z,7.62
2018-12-04T07:41:29.465Z,7.59
2018-12-04T07:42:39.412Z,7.55
2018-12-04T07:43:49.118Z,7.64
2018-12-04T07:44:59.318Z,7.56
2018-12-04T07:46:09.311Z,7.53
2018-12-04T07:47:19.283Z,7.56
2018-12-04T07:48:29.227Z,7.55
2018-12-04T07:49:39.177Z,7.55
2018-12-04T07:50:48.866Z,7.53
2018-12-04T07:51:58.817Z,7.55
2018-12-04T07:53:08.774Z,7.61
2018-12-04T07:54:18.750Z,7.66
2018-12-04T07:55:28.741Z,7.59
2018-12-04T07:56:38.721Z,7.61
2018-12-04T07:57:48.667Z,7.67
2018-12-04T07:58:58.665Z,7.74
2018-12-04T08:00:08.632Z,7.75
2018-12-04T08:01:18.581Z,7.78
2018-12-04T08:02:28.284Z,7.8
2018-12-04T08:03:37.990Z,7.81
2018-12-04T08:04:47.959Z,7.81
2018-12-04T08:05:57.914Z,7.8
2018-12-04T08:07:07.893Z,7.8
2018-12-04T08:08:17.858Z,7.75
2018-12-04T08:09:27.559Z,7.81
2018-12-04T08:10:37.517Z,7.72
2018-12-04T08:11:47.465Z,7.78
2018-12-04T08:12:57.417Z,7.74
2018-12-04T08:14:07.361Z,7.8
2018-12-04T08:15:17.310Z,7.72
2018-12-04T08:16:27.103Z,7.75
2018-12-04T08:17:36.905Z,7.62
2018-12-04T08:18:48.453Z,7.7
2018-12-04T08:19:58.400Z,7.74
2018-12-04T08:21:08.344Z,7.7
2018-12-04T08:22:18.314Z,7.72
2018-12-04T08:23:28.274Z,7.8
2018-12-04T08:24:39.132Z,7.77
2018-12-04T08:25:48.331Z,7.78
2018-12-04T08:26:58.058Z,7.8
2018-12-04T08:28:07.994Z,7.75
2018-12-04T08:29:17.693Z,7.78
2018-12-04T08:30:27.647Z,7.78
2018-12-04T08:31:37.614Z,7.77
2018-12-04T08:32:47.339Z,7.84
2018-12-04T08:33:56.801Z,7.74
2018-12-04T08:35:06.752Z,7.78
2018-12-04T08:36:16.463Z,7.77
2018-12-04T08:37:26.412Z,7.81
2018-12-04T08:38:36.120Z,7.78
2018-12-04T08:39:45.854Z,7.75
2018-12-04T08:40:55.572Z,7.72
2018-12-04T08:42:05.534Z,7.75
2018-12-04T08:43:15.472Z,7.75
2018-12-04T08:44:25.212Z,7.74
2018-12-04T08:45:34.912Z,7.74
2018-12-04T08:46:44.879Z,7.67
2018-12-04T08:47:54.826Z,7.7
2018-12-04T08:49:04.522Z,7.77
2018-12-04T08:50:14.500Z,7.84
2018-12-04T08:51:24.455Z,7.74
2018-12-04T08:52:34.417Z,7.83
2018-12-04T08:53:44.358Z,7.78
2018-12-04T08:54:54.057Z,7.81
2018-12-04T08:56:04.048Z,7.85
2018-12-04T08:57:13.780Z,7.8
2018-12-04T08:58:23.742Z,7.87
2018-12-04T08:59:33.696Z,7.88
2018-12-04T09:00:43.656Z,7.85
2018-12-04T09:01:53.625Z,7.99
2018-12-04T09:03:03.608Z,7.95
2018-12-04T09:04:13.322Z,7.9
2018-12-04T09:05:23.507Z,8.01
2018-12-04T09:06:33.472Z,8.01
2018-12-04T09:07:42.942Z,8.08
2018-12-04T09:08:53.282Z,8.14
2018-12-04T09:10:03.409Z,8.26
2018-12-04T09:11:13.132Z,8.2
2018-12-04T09:12:23.091Z,8.14
2018-12-04T09:13:33.042Z,8.13
2018-12-04T09:14:43.096Z,8.09
2018-12-04T09:15:52.799Z,8.09
2018-12-04T09:17:02.845Z,8.18
2018-12-04T09:18:12.416Z,8.17
2018-12-04T09:19:22.495Z,8.26
2018-12-04T09:20:32.684Z,8.18
2018-12-04T09:21:42.851Z,8.32
2018-12-04T09:22:53.074Z,8.39
2018-12-04T09:24:03.369Z,8.36
2018-12-04T09:25:13.351Z,8.46
2018-12-04T09:26:23.450Z,8.49
2018-12-04T09:27:33.721Z,8.69
2018-12-04T09:28:43.922Z,8.69
2018-12-04T09:29:54.142Z,8.66
2018-12-04T09:31:04.000Z,8.68
2018-12-04T09:32:13.994Z,8.64
2018-12-04T09:33:23.457Z,8.61
2018-12-04T09:34:34.806Z,8.63
2018-12-04T09:35:44.828Z,8.54
2018-12-04T09:36:54.564Z,8.52
2018-12-04T09:38:04.566Z,8.46
2018-12-04T09:39:14.547Z,8.46
2018-12-04T09:40:24.491Z,8.44
2018-12-04T09:41:34.475Z,8.36
2018-12-04T09:42:44.387Z,8.59
2018-12-04T09:43:54.093Z,8.5
2018-12-04T09:45:04.096Z,8.56
2018-12-04T09:46:14.072Z,8.56
2018-12-04T09:47:24.043Z,8.56
2018-12-04T09:48:34.012Z,8.6
2018-12-04T09:49:44.211Z,8.6
2018-12-04T09:50:53.921Z,8.63
2018-12-04T09:52:03.376Z,8.6
2018-12-04T09:53:13.334Z,8.79
2018-12-04T09:54:23.280Z,8.82
2018-12-04T09:55:33.221Z,8.89
2018-12-04T09:56:42.683Z,8.95
2018-12-04T09:57:52.397Z,8.92
2018-12-04T09:59:02.145Z,8.95
2018-12-04T10:00:12.201Z,9
2018-12-04T10:01:21.901Z,8.89
2018-12-04T10:02:31.418Z,8.84
2018-12-04T10:03:41.140Z,8.77
2018-12-04T10:04:51.148Z,8.71
2018-12-04T10:06:01.095Z,8.63
2018-12-04T10:07:10.813Z,8.66
2018-12-04T10:08:20.781Z,8.64
2018-12-04T10:09:30.228Z,8.64
2018-12-04T10:10:40.174Z,8.64
2018-12-04T10:11:50.155Z,8.69
2018-12-04T10:13:00.201Z,8.68
2018-12-04T10:14:10.200Z,8.52
2018-12-04T10:15:19.924Z,8.44
2018-12-04T10:16:29.883Z,8.5
2018-12-04T10:17:39.844Z,8.38
2018-12-04T10:18:52.532Z,8.5
2018-12-04T10:20:02.495Z,8.34
2018-12-04T10:21:12.461Z,8.5
2018-12-04T10:22:22.171Z,8.49
2018-12-04T10:23:32.181Z,8.45
2018-12-04T10:24:41.877Z,8.49
2018-12-04T10:25:51.600Z,8.53
2018-12-04T10:27:01.564Z,8.54
2018-12-04T10:28:11.022Z,8.44
2018-12-04T10:29:20.721Z,8.34
2018-12-04T10:30:30.665Z,8.44
2018-12-04T10:31:40.105Z,8.36
2018-12-04T10:32:50.091Z,8.44
2018-12-04T10:34:00.031Z,8.35
2018-12-04T10:35:09.800Z,8.32
2018-12-04T10:36:19.774Z,8.27
2018-12-04T10:37:29.491Z,8.35
2018-12-04T10:38:39.510Z,8.32
2018-12-04T10:39:49.469Z,8.36
2018-12-04T10:40:59.434Z,8.35
2018-12-04T10:42:09.392Z,8.36
2018-12-04T10:43:19.357Z,8.34
2018-12-04T10:44:29.309Z,8.36
2018-12-04T10:45:39.370Z,8.42
2018-12-04T10:46:48.612Z,8.53
2018-12-04T10:47:58.353Z,8.44
2018-12-04T10:49:08.057Z,8.49
2018-12-04T10:50:18.026Z,8.46
2018-12-04T10:51:27.969Z,8.56
2018-12-04T10:52:37.920Z,8.56
2018-12-04T10:53:47.858Z,8.61
2018-12-04T10:54:57.789Z,8.66
2018-12-04T10:56:07.250Z,8.56
2018-12-04T10:57:16.963Z,8.69
2018-12-04T10:58:26.919Z,8.75
2018-12-04T10:59:36.861Z,8.81
2018-12-04T11:00:46.577Z,8.68
2018-12-04T11:01:56.527Z,8.69
2018-12-04T11:03:06.259Z,8.64
2018-12-04T11:04:16.190Z,8.68
2018-12-04T11:05:26.148Z,8.68
2018-12-04T11:06:36.111Z,8.68
2018-12-04T11:07:46.073Z,8.64
2018-12-04T11:08:56.088Z,8.64
2018-12-04T11:10:06.053Z,8.49
2018-12-04T11:11:15.752Z,8.52
2018-12-04T11:12:25.489Z,8.36
2018-12-04T11:13:35.206Z,8.38
2018-12-04T11:14:45.172Z,8.35
2018-12-04T11:15:54.874Z,8.59
2018-12-04T11:17:04.862Z,8.54
2018-12-04T11:18:14.799Z,8.71
2018-12-04T11:19:24.540Z,8.75
2018-12-04T11:20:34.258Z,8.86
2018-12-04T11:21:44.220Z,8.82
2018-12-04T11:22:54.186Z,9.02
2018-12-04T11:24:04.127Z,8.92
2018-12-04T11:25:13.847Z,8.77
2018-12-04T11:26:23.568Z,8.69
2018-12-04T11:27:33.523Z,8.74
2018-12-04T11:28:43.227Z,8.68
2018-12-04T11:29:52.453Z,8.69
2018-12-04T11:31:02.384Z,8.77
2018-12-04T11:32:12.109Z,8.87
2018-12-04T11:33:22.271Z,8.82
2018-12-04T11:34:32.214Z,8.75
2018-12-04T11:35:41.956Z,8.64
2018-12-04T11:36:51.928Z,8.63
2018-12-04T11:38:01.764Z,8.74
2018-12-04T11:39:10.966Z,8.59
2018-12-04T11:40:20.694Z,8.6
2018-12-04T11:41:31.381Z,8.45
2018-12-04T11:42:41.142Z,8.36
2018-12-04T11:43:50.859Z,8.34
2018-12-04T11:45:00.836Z,8.31
2018-12-04T11:46:10.794Z,8.27
2018-12-04T11:47:22.093Z,8.21
2018-12-04T11:48:32.047Z,8.18
2018-12-04T11:49:42.019Z,8.21
2018-12-04T11:50:52.082Z,8.2
2018-12-04T11:52:07.483Z,8.32
2018-12-04T11:53:17.451Z,8.39
2018-12-04T11:54:27.169Z,8.46
2018-12-04T11:55:36.881Z,8.68
2018-12-04T11:56:46.859Z,8.69
2018-12-04T11:57:56.607Z,8.68
2018-12-04T11:59:06.552Z,8.72
2018-12-04T12:00:16.859Z,8.84
2018-12-04T12:01:26.562Z,8.89
2018-12-04T12:02:36.229Z,8.84
2018-12-04T12:03:46.182Z,8.96
2018-12-04T12:04:55.899Z,8.81
2018-12-04T12:06:05.853Z,8.75
2018-12-04T12:07:20.485Z,8.71
2018-12-04T12:08:30.598Z,8.68
2018-12-04T12:09:40.557Z,8.77
2018-12-04T12:10:50.523Z,8.71
2018-12-04T12:12:00.523Z,8.75
2018-12-04T12:13:10.482Z,8.71
2018-12-04T12:14:20.481Z,8.77
2018-12-04T12:15:30.465Z,8.92
2018-12-04T12:16:40.420Z,8.97
2018-12-04T12:17:50.382Z,9.09
2018-12-04T12:19:00.090Z,9.09
2018-12-04T12:20:10.071Z,9.12
2018-12-04T12:21:20.061Z,9.03
2018-12-04T12:22:29.783Z,9.02
2018-12-04T12:23:39.793Z,8.86
2018-12-04T12:24:49.523Z,8.79
2018-12-04T12:25:58.971Z,8.82
2018-12-04T12:27:08.955Z,8.78
2018-12-04T12:28:18.936Z,8.92
2018-12-04T12:29:28.672Z,8.92
2018-12-04T12:30:38.393Z,9.12
2018-12-04T12:31:48.365Z,9.24
2018-12-04T12:32:57.878Z,9.16
2018-12-04T12:34:07.850Z,9.16
2018-12-04T12:35:17.311Z,9.05
2018-12-04T12:36:27.303Z,8.97
2018-12-04T12:37:37.043Z,8.86
2018-12-04T12:38:47.000Z,8.81
2018-12-04T12:39:56.961Z,8.72
2018-12-04T12:41:06.987Z,8.77
2018-12-04T12:42:16.933Z,8.69
2018-12-04T12:43:26.887Z,8.63
2018-12-04T12:44:36.598Z,8.61
2018-12-04T12:45:46.320Z,8.69
2018-12-04T12:46:56.022Z,8.45
2018-12-04T12:48:05.727Z,8.49
2018-12-04T12:49:15.698Z,8.49
2018-12-04T12:50:25.701Z,8.39
2018-12-04T12:51:35.704Z,8.35
2018-12-04T12:52:45.472Z,8.39
2018-12-04T12:53:55.225Z,8.31
2018-12-04T12:55:05.200Z,8.23
2018-12-04T12:56:15.197Z,8.27
2018-12-04T12:57:24.900Z,8.31
2018-12-04T12:58:34.850Z,8.41
2018-12-04T12:59:44.814Z,8.39
2018-12-04T13:00:54.785Z,8.36
2018-12-04T13:02:04.735Z,8.53
2018-12-04T13:03:14.682Z,8.49
2018-12-04T13:04:24.646Z,8.41
2018-12-04T13:05:34.116Z,8.6
2018-12-04T13:06:44.996Z,8.54
2018-12-04T13:07:54.957Z,8.66
2018-12-04T13:09:04.916Z,8.69
2018-12-04T13:10:14.883Z,8.68
2018-12-04T13:11:24.856Z,8.74
2018-12-04T13:12:34.570Z,8.92
2018-12-04T13:13:44.575Z,8.89
2018-12-04T13:14:54.290Z,9.08
2018-12-04T13:16:04.290Z,9.02
2018-12-04T13:17:14.293Z,8.97
2018-12-04T13:18:24.252Z,8.84
2018-12-04T13:19:34.278Z,8.84
2018-12-04T13:20:44.269Z,8.82
2018-12-04T13:21:54.264Z,8.77
2018-12-04T13:23:03.730Z,8.68
2018-12-04T13:24:13.701Z,8.64
2018-12-04T13:25:23.710Z,8.63
2018-12-04T13:26:33.496Z,8.49
2018-12-04T13:27:43.441Z,8.45
2018-12-04T13:28:53.771Z,8.39
2018-12-04T13:30:03.590Z,8.34
2018-12-04T13:31:13.340Z,7.67
2018-12-04T13:32:23.340Z,7.14
2018-12-04T13:33:33.062Z,6.78
2018-12-04T13:34:43.065Z,6.52
2018-12-04T13:35:53.064Z,6.35
2018-12-04T13:37:03.024Z,6.16
2018-12-04T13:38:12.754Z,6.05
2018-12-04T13:39:22.488Z,6.12
2018-12-04T13:40:32.480Z,6.31
2018-12-04T13:41:42.478Z,6.35
2018-12-04T13:42:52.250Z,6.36
2018-12-04T13:44:02.037Z,6.53
2018-12-04T13:45:12.023Z,6.56
2018-12-04T13:46:22.045Z,6.62
2018-12-04T13:47:31.994Z,6.53
2018-12-04T13:48:41.950Z,6.62
2018-12-04T13:49:51.929Z,6.7
2018-12-04T13:51:01.901Z,6.87
2018-12-04T13:52:11.912Z,6.87
2018-12-04T13:53:21.188Z,6.95
2018-12-04T13:54:31.187Z,6.93
2018-12-04T13:55:41.558Z,6.97
2018-12-04T13:56:51.626Z,6.92
2018-12-04T13:58:01.619Z,7.05
2018-12-04T13:59:11.419Z,7.05
2018-12-04T14:00:21.607Z,7.13
2018-12-04T14:01:30.879Z,7.13
2018-12-04T14:02:40.921Z,7.14
2018-12-04T14:03:50.940Z,7.15
2018-12-04T14:05:00.943Z,7.1
2018-12-04T14:06:15.845Z,7.19
2018-12-04T14:07:25.636Z,7.21
2018-12-04T14:08:35.625Z,7.15
2018-12-04T14:09:45.401Z,7.19
2018-12-04T14:10:55.408Z,7.11
2018-12-04T14:12:05.523Z,7.15
2018-12-04T14:13:15.004Z,7.15
2018-12-04T14:14:24.538Z,7.01
2018-12-04T14:15:34.104Z,7.05
2018-12-04T14:16:44.102Z,7.13
2018-12-04T14:17:54.180Z,6.93
2018-12-04T14:19:03.936Z,6.95
2018-12-04T14:20:14.095Z,6.95
2018-12-04T14:21:24.114Z,6.89
2018-12-04T14:22:33.898Z,6.96
2018-12-04T14:23:43.639Z,6.87
2018-12-04T14:24:53.638Z,6.87
2018-12-04T14:26:03.654Z,6.92
2018-12-04T14:27:13.402Z,6.9
2018-12-04T14:28:23.493Z,6.89
2018-12-04T14:29:33.280Z,6.83
2018-12-04T14:30:43.971Z,6.77
2018-12-04T14:31:53.706Z,6.78
2018-12-04T14:33:03.432Z,6.75
2018-12-04T14:34:13.545Z,6.72
2018-12-04T14:35:23.385Z,6.72
2018-12-04T14:36:32.914Z,6.72
2018-12-04T14:37:42.769Z,6.74
2018-12-04T14:38:52.771Z,6.7
2018-12-04T14:40:02.779Z,6.67
2018-12-04T14:41:12.553Z,6.74
2018-12-04T14:42:23.353Z,6.72
2018-12-04T14:43:33.339Z,6.68
2018-12-04T14:44:43.321Z,6.65
2018-12-04T14:45:53.300Z,6.65
2018-12-04T14:47:03.296Z,6.56
2018-12-04T14:48:13.340Z,6.62
2018-12-04T14:49:23.097Z,6.59
2018-12-04T14:50:33.156Z,6.64
2018-12-04T14:51:42.951Z,6.64
2018-12-04T14:52:52.672Z,6.59
2018-12-04T14:54:02.511Z,6.62
2018-12-04T14:55:12.303Z,6.56
2018-12-04T14:56:22.350Z,6.56
2018-12-04T14:57:32.332Z,6.64
2018-12-04T14:58:41.826Z,6.57
2018-12-04T14:59:51.569Z,6.62
2018-12-04T15:01:01.351Z,6.57
2018-12-04T15:02:11.358Z,6.5
2018-12-04T15:03:21.546Z,6.56
2018-12-04T15:04:31.548Z,6.5
2018-12-04T15:05:41.391Z,6.44
2018-12-04T15:06:51.395Z,6.52
2018-12-04T15:08:00.923Z,6.5
2018-12-04T15:09:10.669Z,6.52
2018-12-04T15:10:20.737Z,6.52
2018-12-04T15:11:30.795Z,6.5
2018-12-04T15:12:40.596Z,6.5
2018-12-04T15:13:50.433Z,6.46
2018-12-04T15:15:00.430Z,6.5
2018-12-04T15:16:10.433Z,6.34
2018-12-04T15:17:20.284Z,6.41
2018-12-04T15:18:30.021Z,6.44
2018-12-04T15:19:39.864Z,6.43
2018-12-04T15:20:49.702Z,6.41
2018-12-04T15:21:59.522Z,6.39
2018-12-04T15:23:09.395Z,6.35
2018-12-04T15:24:19.462Z,6.39
2018-12-04T15:25:29.504Z,6.36
2018-12-04T15:26:39.487Z,6.31
2018-12-04T15:27:49.617Z,6.41